Time;durP1;ratioP1;P1;durP2;ratioP2;P2;SDS_P1;SDS_P2;PMS_P1;PMS_P2;Temp;Humidity;BMP_temperature;BMP_pressure;BME280_temperature;BME280_humidity;BME280_pressure;Samples;Min_cycle;Max_cycle;Signal;HPM_P1;HPM_P2
2023/02/09 00:00:50;;;;;;;9.53;3.10;;;;;;;;;;5092226;28;20327;-78
2023/02/09 00:03:15;;;;;;;8.00;2.87;;;;;;;;;;5079477;28;20032;-78
2023/02/09 00:05:40;;;;;;;9.03;3.07;;;;;;;;;;5081417;28;20028;-78
2023/02/09 00:08:06;;;;;;;5.97;2.40;;;;;;;;;;5092138;28;20419;-78
2023/02/09 00:10:31;;;;;;;11.40;2.97;;;;;;;;;;5091992;28;20055;-78
2023/02/09 00:15:46;;;;;;;8.77;2.83;;;;;;;;;;5088832;28;20046;-78
2023/02/09 00:18:11;;;;;;;5.68;2.30;;;;;;;;;;5089794;28;20111;-78
2023/02/09 00:20:36;;;;;;;8.83;2.73;;;;;;;;;;5091548;28;20151;-78
2023/02/09 00:23:01;;;;;;;7.77;3.00;;;;;;;;;;5082349;28;20039;-78
2023/02/09 00:25:27;;;;;;;7.00;2.77;;;;;;;;;;5063582;28;20363;-78
2023/02/09 00:27:52;;;;;;;4.67;2.07;;;;;;;;;;5091718;28;20107;-78
2023/02/09 00:30:17;;;;;;;3.97;1.90;;;;;;;;;;5091344;28;20019;-78
2023/02/09 00:32:43;;;;;;;8.17;2.80;;;;;;;;;;5084058;28;20396;-78
2023/02/09 00:35:08;;;;;;;6.40;2.50;;;;;;;;;;5086805;28;20095;-78
2023/02/09 00:37:33;;;;;;;6.93;2.80;;;;;;;;;;5091628;28;20591;-78
2023/02/09 00:39:58;;;;;;;6.37;2.93;;;;;;;;;;5090641;28;20020;-78
2023/02/09 00:42:24;;;;;;;7.67;2.73;;;;;;;;;;5087922;28;20019;-78
2023/02/09 00:44:49;;;;;;;6.47;2.40;;;;;;;;;;5070958;28;20033;-78
2023/02/09 00:47:14;;;;;;;5.80;2.43;;;;;;;;;;5086801;28;20616;-78
2023/02/09 00:49:39;;;;;;;9.97;3.40;;;;;;;;;;5091297;28;20024;-78
2023/02/09 00:52:05;;;;;;;7.43;2.13;;;;;;;;;;5091081;28;20020;-78
2023/02/09 00:54:30;;;;;;;5.77;2.33;;;;;;;;;;5076020;28;20012;-78
2023/02/09 00:56:57;;;;;;;10.23;3.37;;;;;;;;;;5090038;28;20032;-78
2023/02/09 00:59:22;;;;;;;15.27;4.20;;;;;;;;;;5089782;28;20375;-78
2023/02/09 01:01:47;;;;;;;5.87;2.10;;;;;;;;;;5091408;28;20017;-78
2023/02/09 01:04:13;;;;;;;3.03;1.90;;;;;;;;;;5073381;28;20021;-78
2023/02/09 01:06:38;;;;;;;6.57;2.80;;;;;;;;;;5078065;28;20028;-78
2023/02/09 01:09:03;;;;;;;6.30;2.50;;;;;;;;;;5091313;28;20024;-78
2023/02/09 01:11:29;;;;;;;11.23;2.80;;;;;;;;;;5091905;28;20012;-78
2023/02/09 01:13:58;;;;;;;6.93;2.60;;;;;;;;;;5086866;28;20032;-78
2023/02/09 01:16:24;;;;;;;4.13;2.53;;;;;;;;;;5089708;28;20040;-78
2023/02/09 01:18:49;;;;;;;6.93;2.70;;;;;;;;;;5091437;28;20012;-78
2023/02/09 01:21:19;;;;;;;5.80;2.37;;;;;;;;;;5091373;28;20432;-78
2023/02/09 01:23:45;;;;;;;8.13;2.93;;;;;;;;;;5082075;28;20058;-78
2023/02/09 01:26:11;;;;;;;11.27;3.13;;;;;;;;;;5089681;28;20055;-78
2023/02/09 01:28:39;;;;;;;11.10;3.17;;;;;;;;;;5085034;28;20032;-78
2023/02/09 01:31:05;;;;;;;8.67;3.70;;;;;;;;;;5092828;28;20024;-78
2023/02/09 01:33:30;;;;;;;7.30;2.73;;;;;;;;;;5088130;28;20020;-78
2023/02/09 01:36:01;;;;;;;10.07;3.00;;;;;;;;;;5094989;28;20095;-78
2023/02/09 01:38:27;;;;;;;8.67;3.43;;;;;;;;;;5094753;28;20008;-78
2023/02/09 01:40:52;;;;;;;8.73;3.20;;;;;;;;;;5094892;28;20153;-78
2023/02/09 01:43:17;;;;;;;8.83;2.90;;;;;;;;;;5086529;28;20483;-78
2023/02/09 01:45:43;;;;;;;9.57;3.13;;;;;;;;;;5084244;28;20034;-78
2023/02/09 01:48:08;;;;;;;7.13;2.70;;;;;;;;;;5094316;28;20109;-78
2023/02/09 01:50:37;;;;;;;10.00;3.43;;;;;;;;;;5093175;28;20031;-78
2023/02/09 01:53:02;;;;;;;9.80;3.43;;;;;;;;;;5086422;28;20459;-78
2023/02/09 01:55:29;;;;;;;10.60;3.57;;;;;;;;;;5091774;28;20016;-78
2023/02/09 01:57:57;;;;;;;5.60;2.47;;;;;;;;;;5093227;28;20044;-78
2023/02/09 02:00:22;;;;;;;4.97;2.47;;;;;;;;;;5094321;28;20012;-78
2023/02/09 02:02:54;;;;;;;4.10;2.23;;;;;;;;;;5088422;28;20027;-78
2023/02/09 02:05:21;;;;;;;10.63;3.20;;;;;;;;;;5080421;28;20463;-78
2023/02/09 02:07:59;;;;;;;12.37;4.13;;;;;;;;;;5094350;28;20036;-78
2023/02/09 02:10:24;;;;;;;8.90;3.20;;;;;;;;;;5088492;28;20073;-78
2023/02/09 02:12:51;;;;;;;10.10;3.23;;;;;;;;;;5075991;28;20016;-78
2023/02/09 02:15:16;;;;;;;7.83;2.80;;;;;;;;;;5059605;28;20433;-76
2023/02/09 02:17:48;;;;;;;5.67;2.27;;;;;;;;;;5086395;28;20068;-75
2023/02/09 02:20:39;;;;;;;6.10;2.13;;;;;;;;;;5092756;28;20023;-76
2023/02/09 02:23:11;;;;;;;5.47;2.20;;;;;;;;;;5070553;28;20036;-75
2023/02/09 02:25:55;;;;;;;6.20;1.98;;;;;;;;;;5071742;28;20364;-75
2023/02/09 02:28:26;;;;;;;5.57;2.13;;;;;;;;;;5072795;28;20032;-76
2023/02/09 02:30:52;;;;;;;4.23;1.83;;;;;;;;;;5092441;28;20023;-78
2023/02/09 02:33:21;;;;;;;5.47;2.03;;;;;;;;;;5092537;28;20032;-78
2023/02/09 02:35:53;;;;;;;7.33;2.47;;;;;;;;;;5079139;28;20028;-78
2023/02/09 02:38:31;;;;;;;6.40;2.10;;;;;;;;;;5092530;28;20024;-78
2023/02/09 02:41:00;;;;;;;3.90;1.70;;;;;;;;;;5086424;28;20032;-78
2023/02/09 02:43:31;;;;;;;6.17;1.97;;;;;;;;;;5085277;28;20085;-78
2023/02/09 02:46:01;;;;;;;6.27;2.30;;;;;;;;;;5069803;28;20068;-78
2023/02/09 02:48:26;;;;;;;6.50;1.97;;;;;;;;;;5093781;28;20024;-78
2023/02/09 02:50:58;;;;;;;6.67;2.13;;;;;;;;;;5092986;28;20015;-78
2023/02/09 02:53:25;;;;;;;5.07;1.80;;;;;;;;;;5093521;28;20027;-78
2023/02/09 02:55:52;;;;;;;6.47;1.43;;;;;;;;;;5089646;28;20039;-78
2023/02/09 02:58:19;;;;;;;4.97;2.03;;;;;;;;;;5091925;28;20123;-78
2023/02/09 03:00:47;;;;;;;3.97;1.70;;;;;;;;;;5091927;28;20050;-78
2023/02/09 03:03:14;;;;;;;5.37;2.40;;;;;;;;;;5093458;28;20478;-78
2023/02/09 03:05:41;;;;;;;6.57;2.30;;;;;;;;;;5088908;28;20089;-78
2023/02/09 03:08:06;;;;;;;6.60;2.23;;;;;;;;;;5093287;28;20048;-78
2023/02/09 03:10:33;;;;;;;2.83;1.60;;;;;;;;;;5091915;28;20063;-78
2023/02/09 03:12:58;;;;;;;9.30;1.83;;;;;;;;;;5091707;28;20016;-78
2023/02/09 03:15:29;;;;;;;13.23;2.70;;;;;;;;;;5083476;28;20510;-78
2023/02/09 03:17:55;;;;;;;4.20;2.03;;;;;;;;;;5070340;28;20050;-78
2023/02/09 03:20:32;;;;;;;4.30;2.13;;;;;;;;;;5080616;28;20024;-78
2023/02/09 03:23:01;;;;;;;3.70;1.80;;;;;;;;;;5093045;28;20046;-78
2023/02/09 03:25:28;;;;;;;6.30;2.03;;;;;;;;;;5092895;28;20114;-78
2023/02/09 03:28:14;;;;;;;10.37;2.20;;;;;;;;;;5089012;28;20398;-78
2023/02/09 03:30:41;;;;;;;6.13;2.37;;;;;;;;;;5090747;28;20040;-78
2023/02/09 03:33:15;;;;;;;6.73;2.13;;;;;;;;;;5090939;28;20467;-78
2023/02/09 03:35:40;;;;;;;4.70;2.10;;;;;;;;;;5090695;28;20016;-78
2023/02/09 03:38:06;;;;;;;5.47;2.20;;;;;;;;;;5091023;28;20103;-78
2023/02/09 03:40:31;;;;;;;8.60;2.40;;;;;;;;;;5087504;28;20012;-78
2023/02/09 03:42:57;;;;;;;7.23;2.10;;;;;;;;;;5070640;28;20017;-78
2023/02/09 03:45:22;;;;;;;9.17;2.33;;;;;;;;;;5078891;28;20536;-78
2023/02/09 03:47:48;;;;;;;10.40;2.97;;;;;;;;;;5091093;28;20028;-78
2023/02/09 03:50:13;;;;;;;6.27;2.10;;;;;;;;;;5091072;28;20078;-78
2023/02/09 03:52:38;;;;;;;5.10;2.20;;;;;;;;;;5088550;28;20020;-78
2023/02/09 03:55:04;;;;;;;6.87;2.43;;;;;;;;;;5084632;28;20028;-78
2023/02/09 03:57:29;;;;;;;9.00;2.37;;;;;;;;;;5092035;28;20380;-77
2023/02/09 03:59:54;;;;;;;4.57;2.13;;;;;;;;;;5091951;28;20020;-78
2023/02/09 04:02:19;;;;;;;4.97;1.80;;;;;;;;;;5092216;28;20016;-78
2023/02/09 04:04:45;;;;;;;6.43;2.53;;;;;;;;;;5085780;28;20028;-78
2023/02/09 04:07:10;;;;;;;5.87;2.20;;;;;;;;;;5087139;28;20419;-78
2023/02/09 04:09:36;;;;;;;6.33;2.17;;;;;;;;;;5091879;28;20038;-78
2023/02/09 04:12:01;;;;;;;6.27;2.43;;;;;;;;;;5091964;28;20103;-78
2023/02/09 04:14:26;;;;;;;7.13;1.70;;;;;;;;;;5090068;28;20048;-78
2023/02/09 04:16:52;;;;;;;6.80;2.53;;;;;;;;;;5084879;28;20040;-76
2023/02/09 04:19:17;;;;;;;6.30;2.27;;;;;;;;;;5085035;28;20057;-76
2023/02/09 04:21:42;;;;;;;7.27;2.33;;;;;;;;;;5090689;28;20101;-76
2023/02/09 04:24:08;;;;;;;5.40;2.03;;;;;;;;;;5091610;28;20467;-76
2023/02/09 04:26:34;;;;;;;5.30;2.17;;;;;;;;;;5091424;28;20417;-76
2023/02/09 04:28:59;;;;;;;6.90;2.87;;;;;;;;;;5083571;28;20024;-76
2023/02/09 04:31:24;;;;;;;10.30;2.30;;;;;;;;;;5086546;28;20073;-76
2023/02/09 04:33:49;;;;;;;5.10;2.27;;;;;;;;;;5091703;28;20618;-76
2023/02/09 04:36:15;;;;;;;5.33;2.03;;;;;;;;;;5090401;28;20024;-76
2023/02/09 04:38:41;;;;;;;4.60;2.03;;;;;;;;;;5091495;28;20098;-76
2023/02/09 04:41:06;;;;;;;6.37;2.50;;;;;;;;;;5085108;28;20043;-76
2023/02/09 04:43:31;;;;;;;10.10;2.60;;;;;;;;;;5087968;28;20096;-76
2023/02/09 04:45:57;;;;;;;9.93;2.63;;;;;;;;;;5085609;28;20050;-76
2023/02/09 04:48:23;;;;;;;6.30;2.07;;;;;;;;;;5091477;28;20110;-78
2023/02/09 04:50:49;;;;;;;6.47;2.43;;;;;;;;;;5091476;28;20024;-76
2023/02/09 04:53:14;;;;;;;6.53;2.53;;;;;;;;;;5086847;28;20028;-76
2023/02/09 04:55:41;;;;;;;6.03;2.57;;;;;;;;;;5089621;28;20027;-76
2023/02/09 05:00:53;;;;;;;7.43;2.30;;;;;;;;;;5091129;28;20513;-76
2023/02/09 05:03:18;;;;;;;7.30;3.00;;;;;;;;;;5089913;28;20123;-76
2023/02/09 05:05:43;;;;;;;4.23;1.80;;;;;;;;;;5090510;28;20085;-77
2023/02/09 05:08:08;;;;;;;6.43;2.50;;;;;;;;;;5095097;28;20023;-76
2023/02/09 05:10:34;;;;;;;5.23;1.90;;;;;;;;;;5095106;28;20413;-76
2023/02/09 05:12:59;;;;;;;8.40;3.07;;;;;;;;;;5095317;28;20129;-76
2023/02/09 05:15:24;;;;;;;5.57;2.50;;;;;;;;;;5093726;28;20011;-76
2023/02/09 05:17:49;;;;;;;7.97;3.20;;;;;;;;;;5078865;28;20650;-76
2023/02/09 05:20:15;;;;;;;13.63;2.40;;;;;;;;;;5094854;28;20065;-76
2023/02/09 05:22:40;;;;;;;11.30;2.80;;;;;;;;;;5095191;28;20052;-76
2023/02/09 05:25:05;;;;;;;10.47;3.37;;;;;;;;;;5093653;28;20083;-76
2023/02/09 05:27:30;;;;;;;6.23;2.73;;;;;;;;;;5095327;28;20030;-76
2023/02/09 05:29:55;;;;;;;9.97;2.53;;;;;;;;;;5087204;28;20503;-76
2023/02/09 05:32:21;;;;;;;4.70;2.13;;;;;;;;;;5095170;28;20016;-76
2023/02/09 05:34:46;;;;;;;5.93;2.80;;;;;;;;;;5094705;28;20020;-76
2023/02/09 05:37:11;;;;;;;9.00;2.67;;;;;;;;;;5095140;28;20048;-76
2023/02/09 05:39:36;;;;;;;6.00;2.70;;;;;;;;;;5095031;28;20072;-76
2023/02/09 05:44:56;;;;;;;7.77;2.93;;;;;;;;;;5077913;28;20029;-76
2023/02/09 05:47:23;;;;;;;7.50;2.70;;;;;;;;;;5093540;28;20020;-78
2023/02/09 05:49:48;;;;;;;8.27;2.63;;;;;;;;;;5093194;28;20051;-76
2023/02/09 05:52:15;;;;;;;8.27;2.73;;;;;;;;;;5093222;28;20047;-77
2023/02/09 05:54:40;;;;;;;6.07;2.30;;;;;;;;;;5086749;28;20494;-76
2023/02/09 05:57:06;;;;;;;7.90;3.03;;;;;;;;;;5094375;28;20062;-77
2023/02/09 05:59:31;;;;;;;7.43;2.97;;;;;;;;;;5092912;28;20012;-76
2023/02/09 06:01:56;;;;;;;8.53;2.77;;;;;;;;;;5092923;28;20025;-78
2023/02/09 06:04:22;;;;;;;6.17;2.27;;;;;;;;;;5093199;28;20023;-78
2023/02/09 06:06:47;;;;;;;6.93;2.47;;;;;;;;;;5088195;28;20023;-78
2023/02/09 06:09:12;;;;;;;8.90;3.23;;;;;;;;;;5094358;28;20023;-76
2023/02/09 06:11:37;;;;;;;7.77;2.13;;;;;;;;;;5094897;28;20028;-76
2023/02/09 06:14:03;;;;;;;7.87;2.67;;;;;;;;;;5093901;28;20463;-76
2023/02/09 06:16:28;;;;;;;7.77;3.10;;;;;;;;;;5092827;28;20012;-76
2023/02/09 06:18:53;;;;;;;9.00;2.90;;;;;;;;;;5084017;28;20068;-76
2023/02/09 06:21:18;;;;;;;8.57;3.13;;;;;;;;;;5092535;28;20020;-76
2023/02/09 06:23:44;;;;;;;9.33;3.00;;;;;;;;;;5093974;28;20024;-76
2023/02/09 06:26:11;;;;;;;10.03;3.30;;;;;;;;;;5094418;28;20415;-76
2023/02/09 06:28:37;;;;;;;8.33;3.03;;;;;;;;;;5093959;28;20039;-76
2023/02/09 06:31:03;;;;;;;8.00;2.47;;;;;;;;;;5083820;28;20032;-77
2023/02/09 06:33:28;;;;;;;7.37;2.77;;;;;;;;;;5078661;28;20035;-77
2023/02/09 06:35:53;;;;;;;10.10;3.37;;;;;;;;;;5078596;28;20031;-77
2023/02/09 06:38:19;;;;;;;8.20;2.60;;;;;;;;;;5078257;28;20044;-76
2023/02/09 06:40:44;;;;;;;6.53;2.87;;;;;;;;;;5091409;28;20016;-76
2023/02/09 06:43:10;;;;;;;5.73;2.23;;;;;;;;;;5092227;28;20035;-77
2023/02/09 06:45:37;;;;;;;10.27;3.50;;;;;;;;;;5083431;28;20025;-76
2023/02/09 06:48:03;;;;;;;9.37;3.00;;;;;;;;;;5082558;28;20033;-77
2023/02/09 06:50:29;;;;;;;9.73;3.60;;;;;;;;;;5077677;28;20112;-77
2023/02/09 06:52:55;;;;;;;6.10;2.17;;;;;;;;;;5078973;28;20471;-77
2023/02/09 06:55:21;;;;;;;10.97;3.73;;;;;;;;;;5073858;28;20016;-77
2023/02/09 06:57:46;;;;;;;11.17;3.60;;;;;;;;;;5078776;28;20069;-77
2023/02/09 07:00:12;;;;;;;9.17;2.97;;;;;;;;;;5071984;28;20012;-76
2023/02/09 07:02:37;;;;;;;10.87;3.77;;;;;;;;;;5089045;28;20095;-77
2023/02/09 07:05:03;;;;;;;9.30;3.13;;;;;;;;;;5076189;28;20020;-77
2023/02/09 07:07:28;;;;;;;8.83;3.60;;;;;;;;;;5080452;28;20474;-76
2023/02/09 07:09:53;;;;;;;12.10;3.70;;;;;;;;;;5091394;28;20099;-77
2023/02/09 07:12:18;;;;;;;9.33;3.17;;;;;;;;;;5088270;28;20016;-77
2023/02/09 07:14:44;;;;;;;10.03;3.30;;;;;;;;;;5091409;28;20467;-77
2023/02/09 07:17:09;;;;;;;10.80;3.70;;;;;;;;;;5072592;28;20025;-77
2023/02/09 07:19:35;;;;;;;8.80;2.73;;;;;;;;;;5074103;28;20037;-76
2023/02/09 07:22:00;;;;;;;6.63;3.20;;;;;;;;;;5080439;28;20044;-77
2023/02/09 07:24:25;;;;;;;11.73;4.70;;;;;;;;;;5071262;28;20059;-77
2023/02/09 07:26:50;;;;;;;8.73;3.73;;;;;;;;;;5073219;28;20159;-77
2023/02/09 07:29:15;;;;;;;11.13;4.60;;;;;;;;;;5073803;28;20441;-77
2023/02/09 07:31:41;;;;;;;10.67;4.47;;;;;;;;;;5070551;28;20024;-77
2023/02/09 07:34:06;;;;;;;9.33;3.47;;;;;;;;;;5092161;28;20036;-76
2023/02/09 07:36:32;;;;;;;13.67;4.13;;;;;;;;;;5091721;28;20107;-77
2023/02/09 07:38:58;;;;;;;8.73;3.20;;;;;;;;;;5090532;28;20388;-77
2023/02/09 07:41:27;;;;;;;10.67;4.20;;;;;;;;;;5072501;28;20040;-77
2023/02/09 07:43:54;;;;;;;13.30;3.70;;;;;;;;;;5079296;28;20480;-77
2023/02/09 07:46:20;;;;;;;5.20;3.10;;;;;;;;;;5078184;28;20032;-77
2023/02/09 07:48:45;;;;;;;6.00;3.17;;;;;;;;;;5078590;28;20032;-77
2023/02/09 07:51:14;;;;;;;12.03;3.80;;;;;;;;;;5079344;28;20498;-77
2023/02/09 07:53:39;;;;;;;9.50;3.90;;;;;;;;;;5069039;28;20032;-77
2023/02/09 07:56:05;;;;;;;10.30;4.07;;;;;;;;;;5070284;28;20048;-77
2023/02/09 07:58:30;;;;;;;11.60;4.27;;;;;;;;;;5079906;28;20371;-77
2023/02/09 08:01:01;;;;;;;9.43;4.30;;;;;;;;;;5074131;28;20028;-77
2023/02/09 08:03:27;;;;;;;10.60;4.20;;;;;;;;;;5082683;28;20475;-77
2023/02/09 08:05:58;;;;;;;9.67;4.00;;;;;;;;;;5075675;28;20028;-77
2023/02/09 08:08:24;;;;;;;13.30;4.10;;;;;;;;;;5074128;28;20024;-77
2023/02/09 08:10:49;;;;;;;11.33;3.40;;;;;;;;;;5073023;28;20539;-77
2023/02/09 08:13:14;;;;;;;12.00;4.73;;;;;;;;;;5090349;28;20099;-77
2023/02/09 08:15:40;;;;;;;9.13;4.27;;;;;;;;;;5074784;28;20123;-77
2023/02/09 08:18:08;;;;;;;13.83;3.63;;;;;;;;;;5074898;28;20099;-77
2023/02/09 08:20:33;;;;;;;8.73;3.47;;;;;;;;;;5081943;28;20020;-77
2023/02/09 08:23:01;;;;;;;7.13;3.37;;;;;;;;;;5074627;28;20028;-77
2023/02/09 08:25:28;;;;;;;10.47;3.93;;;;;;;;;;5081894;28;20484;-77
2023/02/09 08:27:53;;;;;;;7.63;2.67;;;;;;;;;;5085616;28;20028;-77
2023/02/09 08:30:18;;;;;;;7.27;2.90;;;;;;;;;;5081542;28;20020;-77
2023/02/09 08:32:43;;;;;;;6.13;2.73;;;;;;;;;;5072358;28;20028;-77
2023/02/09 08:35:09;;;;;;;9.13;3.10;;;;;;;;;;5078898;28;20420;-78
2023/02/09 08:37:34;;;;;;;12.93;3.53;;;;;;;;;;5080203;28;20395;-77
2023/02/09 08:39:59;;;;;;;8.70;4.17;;;;;;;;;;5080464;28;20032;-79
2023/02/09 08:42:24;;;;;;;9.67;3.67;;;;;;;;;;5085722;28;20023;-78
2023/02/09 08:44:50;;;;;;;8.33;3.20;;;;;;;;;;5076349;28;20575;-79
2023/02/09 08:47:15;;;;;;;12.57;3.93;;;;;;;;;;5079447;28;20359;-78
2023/02/09 08:49:40;;;;;;;9.83;3.50;;;;;;;;;;5072717;28;20071;-78
2023/02/09 08:52:07;;;;;;;12.13;4.03;;;;;;;;;;5085689;28;20027;-79
2023/02/09 08:54:32;;;;;;;9.47;3.47;;;;;;;;;;5073353;28;20063;-78
2023/02/09 08:56:57;;;;;;;9.67;3.90;;;;;;;;;;5063132;28;20105;-79
2023/02/09 08:59:23;;;;;;;10.37;3.70;;;;;;;;;;5070585;28;20353;-78
2023/02/09 09:01:48;;;;;;;9.10;2.53;;;;;;;;;;5065507;28;20117;-78
2023/02/09 09:04:13;;;;;;;9.07;3.63;;;;;;;;;;5065789;28;20123;-78
2023/02/09 09:06:38;;;;;;;11.50;3.77;;;;;;;;;;5066509;28;20044;-78
2023/02/09 09:09:03;;;;;;;12.33;3.83;;;;;;;;;;5065939;28;20052;-78
2023/02/09 09:11:29;;;;;;;12.70;4.73;;;;;;;;;;5066953;28;20464;-78
2023/02/09 09:13:54;;;;;;;11.30;4.10;;;;;;;;;;5074341;28;20016;-79
2023/02/09 09:16:20;;;;;;;8.77;3.43;;;;;;;;;;5075530;28;20493;-78
2023/02/09 09:18:46;;;;;;;8.87;2.97;;;;;;;;;;5077344;28;20020;-79
2023/02/09 09:21:12;;;;;;;10.83;3.87;;;;;;;;;;5073048;28;20518;-78
2023/02/09 09:23:37;;;;;;;13.27;3.57;;;;;;;;;;5084395;28;20164;-79
2023/02/09 09:26:02;;;;;;;10.70;3.23;;;;;;;;;;5067188;28;20553;-79
2023/02/09 09:28:28;;;;;;;9.40;3.57;;;;;;;;;;5072772;28;20062;-78
2023/02/09 09:30:53;;;;;;;8.73;3.30;;;;;;;;;;5087632;28;20048;-78
2023/02/09 09:33:18;;;;;;;9.30;3.77;;;;;;;;;;5086807;28;20464;-78
2023/02/09 09:35:44;;;;;;;12.73;4.10;;;;;;;;;;5075214;28;20066;-78
2023/02/09 09:38:09;;;;;;;7.97;2.80;;;;;;;;;;5067787;28;20093;-78
2023/02/09 09:40:36;;;;;;;8.93;3.50;;;;;;;;;;5075171;28;20027;-78
2023/02/09 09:43:05;;;;;;;9.07;3.17;;;;;;;;;;5066992;28;20024;-78
2023/02/09 09:45:32;;;;;;;11.43;4.00;;;;;;;;;;5065388;28;20013;-78
2023/02/09 09:47:57;;;;;;;10.40;3.90;;;;;;;;;;5065940;28;20013;-78
2023/02/09 09:50:40;;;;;;;10.93;4.23;;;;;;;;;;5075573;28;20448;-78
2023/02/09 09:53:05;;;;;;;;;;;;;;;;;;5079121;28;20114;-77
2023/02/09 09:55:31;;;;;;;8.93;2.97;;;;;;;;;;5077762;28;19987;-78
2023/02/09 09:58:00;;;;;;;14.43;4.17;;;;;;;;;;5073396;28;20283;-80
2023/02/09 10:00:32;;;;;;;12.17;3.83;;;;;;;;;;5079644;28;20021;-78
2023/02/09 10:02:57;;;;;;;14.75;5.40;;;;;;;;;;5057553;28;20028;-78
2023/02/09 10:05:24;;;;;;;14.27;5.13;;;;;;;;;;5069905;28;20024;-78
2023/02/09 10:08:02;;;;;;;11.60;3.50;;;;;;;;;;5073070;28;20025;-76
2023/02/09 10:10:40;;;;;;;12.20;4.20;;;;;;;;;;5071164;28;20020;-76
2023/02/09 10:13:25;;;;;;;10.03;4.00;;;;;;;;;;5076528;28;20040;-76
2023/02/09 10:15:54;;;;;;;10.47;4.27;;;;;;;;;;5065426;28;20086;-76
2023/02/09 10:18:24;;;;;;;8.77;3.67;;;;;;;;;;5073094;28;20044;-78
2023/02/09 10:21:00;;;;;;;12.73;4.83;;;;;;;;;;5068430;28;20021;-79
2023/02/09 10:23:27;;;;;;;13.83;4.40;;;;;;;;;;5080772;28;20062;-78
2023/02/09 10:26:08;;;;;;;11.60;3.90;;;;;;;;;;5073260;28;20020;-79
2023/02/09 10:28:44;;;;;;;9.93;3.60;;;;;;;;;;5066699;28;20111;-79
2023/02/09 10:31:10;;;;;;;9.97;4.23;;;;;;;;;;5072514;28;20028;-79
2023/02/09 10:33:39;;;;;;;12.07;4.13;;;;;;;;;;5065642;28;20029;-79
2023/02/09 10:36:07;;;;;;;8.13;3.17;;;;;;;;;;5072763;28;20028;-79
2023/02/09 10:38:32;;;;;;;13.57;4.67;;;;;;;;;;5072876;28;20440;-79
2023/02/09 10:40:58;;;;;;;12.43;5.10;;;;;;;;;;5072904;28;20070;-79
2023/02/09 10:43:31;;;;;;;14.97;4.73;;;;;;;;;;5069889;28;20843;-79
2023/02/09 10:45:56;;;;;;;;;;;;;;;;;;5069839;28;20044;-78
2023/02/09 10:48:22;;;;;;;9.57;3.80;;;;;;;;;;5072365;28;19908;-79
2023/02/09 10:50:53;;;;;;;12.53;4.40;;;;;;;;;;5072177;28;20012;-79
2023/02/09 10:53:19;;;;;;;13.93;4.87;;;;;;;;;;5070940;28;20111;-79
2023/02/09 10:55:44;;;;;;;10.57;4.77;;;;;;;;;;5071853;28;20154;-79
2023/02/09 10:58:10;;;;;;;9.17;3.93;;;;;;;;;;5070295;28;20020;-79
2023/02/09 11:00:54;;;;;;;12.27;4.00;;;;;;;;;;5067408;28;20024;-79
2023/02/09 11:03:20;;;;;;;11.30;4.33;;;;;;;;;;5062306;28;20777;-78
2023/02/09 11:05:46;;;;;;;8.87;4.23;;;;;;;;;;5071748;28;20016;-79
2023/02/09 11:08:14;;;;;;;11.27;3.80;;;;;;;;;;5071752;28;20483;-79
2023/02/09 11:10:43;;;;;;;12.70;4.77;;;;;;;;;;5068304;28;20454;-78
2023/02/09 11:13:20;;;;;;;12.47;4.93;;;;;;;;;;5076222;28;20042;-77
2023/02/09 11:15:53;;;;;;;11.43;4.20;;;;;;;;;;5076717;28;20025;-77
2023/02/09 11:18:22;;;;;;;16.30;5.00;;;;;;;;;;5074941;28;20536;-78
2023/02/09 11:20:54;;;;;;;16.80;5.60;;;;;;;;;;5080579;28;20050;-77
2023/02/09 11:23:37;;;;;;;16.95;4.75;;;;;;;;;;5075923;28;20055;-77
2023/02/09 11:26:16;;;;;;;11.57;5.40;;;;;;;;;;5066166;28;20042;-78
2023/02/09 11:28:49;;;;;;;17.47;6.00;;;;;;;;;;5067942;28;20052;-78
2023/02/09 11:31:19;;;;;;;14.53;5.37;;;;;;;;;;5076542;28;20031;-77
2023/02/09 11:33:51;;;;;;;14.57;4.20;;;;;;;;;;5062882;28;20412;-78
2023/02/09 11:36:26;;;;;;;14.18;5.60;;;;;;;;;;5069821;28;20495;-79
2023/02/09 11:38:54;;;;;;;17.03;6.90;;;;;;;;;;5077276;28;20035;-78
2023/02/09 11:44:14;;;;;;;15.27;5.63;;;;;;;;;;5073690;28;20101;-77
2023/02/09 11:46:40;;;;;;;16.17;5.93;;;;;;;;;;5083210;28;20028;-78
2023/02/09 11:49:15;;;;;;;14.33;6.50;;;;;;;;;;5091152;28;20054;-78
2023/02/09 11:51:42;;;;;;;18.60;5.93;;;;;;;;;;5078207;28;20028;-78
2023/02/09 11:54:19;;;;;;;12.37;4.10;;;;;;;;;;5059466;28;20348;-78
2023/02/09 11:56:46;;;;;;;18.57;6.80;;;;;;;;;;5085016;28;20020;-78
2023/02/09 11:59:20;;;;;;;13.90;5.70;;;;;;;;;;5089280;28;20478;-78
2023/02/09 12:01:55;;;;;;;15.90;5.57;;;;;;;;;;5078036;28;20023;-78
2023/02/09 12:04:35;;;;;;;15.40;5.43;;;;;;;;;;5071886;28;20099;-78
2023/02/09 12:07:09;;;;;;;15.67;6.93;;;;;;;;;;5091749;28;20149;-77
2023/02/09 12:09:52;;;;;;;15.90;5.80;;;;;;;;;;5074763;28;20527;-78
2023/02/09 12:12:18;;;;;;;17.70;7.40;;;;;;;;;;5070691;28;20682;-78
2023/02/09 12:15:01;;;;;;;15.17;6.07;;;;;;;;;;5083113;28;20019;-78
2023/02/09 12:17:32;;;;;;;10.30;4.60;;;;;;;;;;5064183;28;20029;-78
2023/02/09 12:19:59;;;;;;;21.73;7.13;;;;;;;;;;5072472;28;20032;-78
2023/02/09 12:22:33;;;;;;;15.37;6.13;;;;;;;;;;5078199;28;20095;-78
2023/02/09 12:25:10;;;;;;;18.70;6.17;;;;;;;;;;5078721;28;20092;-78
2023/02/09 12:27:37;;;;;;;15.77;6.10;;;;;;;;;;5072840;28;20584;-77
2023/02/09 12:30:22;;;;;;;16.70;6.53;;;;;;;;;;5075036;28;20016;-78
2023/02/09 12:32:48;;;;;;;17.37;5.77;;;;;;;;;;5072269;28;20364;-78
2023/02/09 12:35:25;;;;;;;13.63;5.80;;;;;;;;;;5067943;28;20020;-78
2023/02/09 12:38:06;;;;;;;22.53;7.67;;;;;;;;;;5057013;28;20352;-77
2023/02/09 12:40:36;;;;;;;24.83;6.87;;;;;;;;;;5066511;28;20013;-77
2023/02/09 12:43:08;;;;;;;15.63;6.43;;;;;;;;;;5066133;28;20269;-77
2023/02/09 12:45:37;;;;;;;14.73;5.93;;;;;;;;;;5069866;28;20036;-77
2023/02/09 12:48:08;;;;;;;23.67;7.77;;;;;;;;;;5070780;28;20040;-78
2023/02/09 12:50:42;;;;;;;21.17;7.07;;;;;;;;;;5067134;28;20685;-78
2023/02/09 12:53:34;;;;;;;18.90;7.93;;;;;;;;;;5066680;28;20074;-77
2023/02/09 12:56:01;;;;;;;19.30;7.20;;;;;;;;;;5064929;28;20044;-78
2023/02/09 12:58:45;;;;;;;14.93;6.43;;;;;;;;;;5070708;28;20063;-78
2023/02/09 13:01:11;;;;;;;16.87;6.73;;;;;;;;;;5068685;28;20047;-78
2023/02/09 13:03:41;;;;;;;18.93;7.10;;;;;;;;;;5069203;28;20028;-78
2023/02/09 13:06:18;;;;;;;19.50;7.43;;;;;;;;;;5067255;28;20028;-78
2023/02/09 13:08:47;;;;;;;17.57;6.30;;;;;;;;;;5068992;28;20513;-78
2023/02/09 13:11:28;;;;;;;18.60;6.57;;;;;;;;;;5070111;28;20020;-78
2023/02/09 13:13:53;;;;;;;17.70;6.80;;;;;;;;;;5080122;28;20028;-78
2023/02/09 13:16:21;;;;;;;15.37;6.20;;;;;;;;;;5091144;28;20027;-78
2023/02/09 13:18:52;;;;;;;14.57;6.57;;;;;;;;;;5082336;28;20036;-77
2023/02/09 13:21:36;;;;;;;18.53;7.17;;;;;;;;;;5070523;28;20089;-78
2023/02/09 13:24:01;;;;;;;14.87;7.13;;;;;;;;;;5091138;28;20020;-78
2023/02/09 13:26:29;;;;;;;20.83;8.23;;;;;;;;;;5093248;28;20046;-78
2023/02/09 13:29:10;;;;;;;21.90;9.50;;;;;;;;;;5093597;28;20493;-79
2023/02/09 13:31:42;;;;;;;20.77;9.73;;;;;;;;;;5092632;28;20070;-79
2023/02/09 13:34:26;;;;;;;13.87;6.40;;;;;;;;;;5091485;28;20031;-78
2023/02/09 13:37:03;;;;;;;23.90;8.37;;;;;;;;;;5094797;28;20020;-79
2023/02/09 13:39:31;;;;;;;15.17;6.13;;;;;;;;;;5092805;28;20028;-79
2023/02/09 13:41:56;;;;;;;19.53;8.10;;;;;;;;;;5092653;28;20024;-79
2023/02/09 13:44:26;;;;;;;21.87;9.63;;;;;;;;;;5086681;28;20468;-78
2023/02/09 13:46:52;;;;;;;18.53;7.33;;;;;;;;;;5086863;28;20072;-79
2023/02/09 13:49:18;;;;;;;18.33;7.53;;;;;;;;;;5094977;28;20028;-79
2023/02/09 13:51:43;;;;;;;19.53;6.27;;;;;;;;;;5095040;28;20487;-79
2023/02/09 13:54:19;;;;;;;24.30;8.80;;;;;;;;;;5083641;28;20031;-78
2023/02/09 13:56:44;;;;;;;22.40;6.97;;;;;;;;;;5087895;28;20020;-79
2023/02/09 13:59:16;;;;;;;20.73;8.13;;;;;;;;;;5093131;28;20012;-79
2023/02/09 14:01:45;;;;;;;15.55;7.05;;;;;;;;;;5087120;28;20103;-78
2023/02/09 14:04:38;;;;;;;21.90;10.13;;;;;;;;;;5092254;28;20020;-78
2023/02/09 14:07:07;;;;;;;17.63;7.27;;;;;;;;;;5080156;28;20781;-79
2023/02/09 14:09:38;;;;;;;20.20;7.50;;;;;;;;;;5094430;28;20012;-78
2023/02/09 14:12:06;;;;;;;18.00;7.73;;;;;;;;;;5094093;28;20035;-78
2023/02/09 14:16:05;;;;;;;18.37;7.47;;;;;;;;;;5089432;28;20106;-78
2023/02/09 14:17:29;;;;;;;25.30;7.30;;;;;;;;;;5083988;28;20024;-78
2023/02/09 14:19:54;;;;;;;20.00;8.70;;;;;;;;;;5090795;28;20016;-78
2023/02/09 14:22:36;;;;;;;20.90;7.20;;;;;;;;;;5094451;28;20012;-78
2023/02/09 14:25:24;;;;;;;18.27;6.97;;;;;;;;;;5091620;28;20485;-79
2023/02/09 14:27:49;;;;;;;21.33;7.87;;;;;;;;;;5067435;28;20041;-78
2023/02/09 14:30:19;;;;;;;17.07;7.93;;;;;;;;;;5086144;28;20008;-79
2023/02/09 14:32:47;;;;;;;21.90;7.93;;;;;;;;;;5087429;28;20024;-81
2023/02/09 14:35:17;;;;;;;17.87;7.27;;;;;;;;;;5077574;28;20384;-80
2023/02/09 14:37:42;;;;;;;19.90;9.20;;;;;;;;;;5070528;28;20078;-79
2023/02/09 14:40:07;;;;;;;19.10;8.63;;;;;;;;;;5090172;28;20011;-79
2023/02/09 14:42:38;;;;;;;21.33;7.77;;;;;;;;;;5081675;28;20760;-79
2023/02/09 14:45:12;;;;;;;17.43;7.23;;;;;;;;;;5077561;28;20013;-79
2023/02/09 14:47:39;;;;;;;14.60;6.90;;;;;;;;;;5068950;28;20095;-79
2023/02/09 14:50:05;;;;;;;21.93;8.13;;;;;;;;;;5090136;28;20024;-78
2023/02/09 14:52:32;;;;;;;22.03;8.03;;;;;;;;;;5092381;28;20091;-78
2023/02/09 14:54:59;;;;;;;22.10;7.83;;;;;;;;;;5091364;28;20020;-79